sensor_id;sensor_type;location;lat;lon;timestamp;pressure;altitude;pressure_sealevel;temperature;humidity
46583;BME280;32309;48.858;8.252;2023-04-10T20:24:25;100136.78;;;14.24;51.72
46583;BME280;32309;48.858;8.252;2023-04-10T20:29:28;100113.06;;;14.15;53.41
46583;BME280;32309;48.858;8.252;2023-04-10T20:31:57;100113.63;;;14.08;53.76
46583;BME280;32309;48.858;8.252;2023-04-10T20:34:05;100105.25;;;14.04;52.13
46583;BME280;32309;48.858;8.252;2023-04-10T20:36:10;100099.41;;;14.01;54.45
46583;BME280;32309;48.858;8.252;2023-04-10T20:52:44;100057.59;;;13.55;60.87
46583;BME280;32309;48.858;8.252;2023-04-10T20:54:44;100064.94;;;13.50;61.92
46583;BME280;32309;48.858;8.252;2023-04-10T20:56:45;100062.66;;;13.45;61.03
46583;BME280;32309;48.858;8.252;2023-04-10T20:58:45;100063.69;;;13.43;61.03
46583;BME280;32309;48.858;8.252;2023-04-10T21:00:45;100064.88;;;13.39;60.98
46583;BME280;32309;48.858;8.252;2023-04-10T21:02:46;100059.78;;;13.37;60.74
46583;BME280;32309;48.858;8.252;2023-04-10T21:04:47;100053.81;;;13.35;60.15
46583;BME280;32309;48.858;8.252;2023-04-10T21:06:48;100050.38;;;13.35;59.85
46583;BME280;32309;48.858;8.252;2023-04-10T21:08:49;100048.84;;;13.32;60.17
46583;BME280;32309;48.858;8.252;2023-04-10T21:10:51;100058.41;;;13.31;60.16
46583;BME280;32309;48.858;8.252;2023-04-10T21:12:51;100075.09;;;13.29;60.30
46583;BME280;32309;48.858;8.252;2023-04-10T21:14:51;100075.09;;;13.29;58.75
46583;BME280;32309;48.858;8.252;2023-04-10T21:16:52;100086.31;;;13.29;58.66
46583;BME280;32309;48.858;8.252;2023-04-10T21:18:52;100081.13;;;13.29;59.40
46583;BME280;32309;48.858;8.252;2023-04-10T21:20:52;100071.63;;;13.28;57.81
46583;BME280;32309;48.858;8.252;2023-04-10T21:22:53;100073.44;;;13.28;58.76
46583;BME280;32309;48.858;8.252;2023-04-10T21:24:53;100074.38;;;13.27;59.21
46583;BME280;32309;48.858;8.252;2023-04-10T21:26:53;100080.38;;;13.27;59.26
46583;BME280;32309;48.858;8.252;2023-04-10T21:28:53;100088.31;;;13.26;59.05
46583;BME280;32309;48.858;8.252;2023-04-10T21:30:54;100083.22;;;13.24;58.51
46583;BME280;32309;48.858;8.252;2023-04-10T21:32:54;100073.53;;;13.26;58.12
46583;BME280;32309;48.858;8.252;2023-04-10T21:34:54;100067.50;;;13.26;58.86
46583;BME280;32309;48.858;8.252;2023-04-10T21:36:55;100054.47;;;13.26;58.48
46583;BME280;32309;48.858;8.252;2023-04-10T21:38:55;100057.19;;;13.24;57.62
46583;BME280;32309;48.858;8.252;2023-04-10T21:40:55;100050.31;;;13.23;58.79
46583;BME280;32309;48.858;8.252;2023-04-10T21:42:56;100046.91;;;13.23;59.22
46583;BME280;32309;48.858;8.252;2023-04-10T21:44:56;100033.16;;;13.21;58.81
46583;BME280;32309;48.858;8.252;2023-04-10T21:46:56;100035.75;;;13.21;58.55
46583;BME280;32309;48.858;8.252;2023-04-10T21:48:57;100038.47;;;13.19;58.97
46583;BME280;32309;48.858;8.252;2023-04-10T21:50:57;100034.19;;;13.18;58.75
46583;BME280;32309;48.858;8.252;2023-04-10T21:52:57;100020.50;;;13.16;58.44
46583;BME280;32309;48.858;8.252;2023-04-10T21:54:59;100024.66;;;13.19;55.88
46583;BME280;32309;48.858;8.252;2023-04-10T21:56:59;100015.06;;;13.19;58.06
46583;BME280;32309;48.858;8.252;2023-04-10T21:59:00;100009.72;;;13.21;57.44
46583;BME280;32309;48.858;8.252;2023-04-10T22:01:00;99996.72;;;13.21;56.62
46583;BME280;32309;48.858;8.252;2023-04-10T22:03:02;99993.06;;;13.23;56.84
46583;BME280;32309;48.858;8.252;2023-04-10T22:05:02;99967.97;;;13.22;56.50
46583;BME280;32309;48.858;8.252;2023-04-10T22:07:02;99963.63;;;13.23;56.88
46583;BME280;32309;48.858;8.252;2023-04-10T22:09:03;99972.47;;;13.20;57.37
46583;BME280;32309;48.858;8.252;2023-04-10T22:11:04;99958.66;;;13.20;56.41
46583;BME280;32309;48.858;8.252;2023-04-10T22:13:04;99945.63;;;13.20;57.05
46583;BME280;32309;48.858;8.252;2023-04-10T22:15:05;99945.63;;;13.20;56.68
46583;BME280;32309;48.858;8.252;2023-04-10T22:17:06;99938.78;;;13.19;56.84
46583;BME280;32309;48.858;8.252;2023-04-10T22:19:07;99930.72;;;13.22;55.96
46583;BME280;32309;48.858;8.252;2023-04-10T22:21:07;99928.13;;;13.22;55.76
46583;BME280;32309;48.858;8.252;2023-04-10T22:23:08;99920.19;;;13.23;56.44
46583;BME280;32309;48.858;8.252;2023-04-10T22:25:09;99907.06;;;13.25;56.65
46583;BME280;32309;48.858;8.252;2023-04-10T22:27:09;99903.41;;;13.27;55.68
46583;BME280;32309;48.858;8.252;2023-04-10T22:29:10;99898.94;;;13.29;55.80
46583;BME280;32309;48.858;8.252;2023-04-10T22:31:14;99886.53;;;13.33;55.80
46583;BME280;32309;48.858;8.252;2023-04-10T22:33:15;99896.81;;;13.35;56.19
46583;BME280;32309;48.858;8.252;2023-04-10T22:35:15;99897.63;;;13.35;55.84
46583;BME280;32309;48.858;8.252;2023-04-10T22:37:15;99903.34;;;13.40;55.42
46583;BME280;32309;48.858;8.252;2023-04-10T22:39:16;99904.09;;;13.42;55.40
46583;BME280;32309;48.858;8.252;2023-04-10T22:41:16;99905.50;;;13.46;55.03
46583;BME280;32309;48.858;8.252;2023-04-10T22:43:16;99914.00;;;13.48;54.67
46583;BME280;32309;48.858;8.252;2023-04-10T22:45:17;99913.81;;;13.52;54.44
46583;BME280;32309;48.858;8.252;2023-04-10T22:47:17;99911.88;;;13.54;54.72
46583;BME280;32309;48.858;8.252;2023-04-10T22:49:17;99932.38;;;13.58;54.54
46583;BME280;32309;48.858;8.252;2023-04-10T22:51:27;99937.34;;;13.61;54.41
46583;BME280;32309;48.858;8.252;2023-04-10T22:53:28;99927.53;;;13.65;54.28
46583;BME280;32309;48.858;8.252;2023-04-10T22:55:28;99927.53;;;13.65;54.38
46583;BME280;32309;48.858;8.252;2023-04-10T22:57:28;99921.03;;;13.71;54.03
46583;BME280;32309;48.858;8.252;2023-04-10T22:59:29;99916.41;;;13.74;53.55
46583;BME280;32309;48.858;8.252;2023-04-10T23:01:29;99919.97;;;13.73;53.79
46583;BME280;32309;48.858;8.252;2023-04-10T23:03:30;99919.84;;;13.75;53.82
46583;BME280;32309;48.858;8.252;2023-04-10T23:05:30;99918.09;;;13.75;54.89
46583;BME280;32309;48.858;8.252;2023-04-10T23:07:31;99923.41;;;13.74;55.68
46583;BME280;32309;48.858;8.252;2023-04-10T23:09:32;99932.06;;;13.74;55.40
46583;BME280;32309;48.858;8.252;2023-04-10T23:11:32;99932.28;;;13.71;56.97
46583;BME280;32309;48.858;8.252;2023-04-10T23:13:32;99937.03;;;13.66;59.28
46583;BME280;32309;48.858;8.252;2023-04-10T23:15:33;99930.47;;;13.60;59.48
46583;BME280;32309;48.858;8.252;2023-04-10T23:17:33;99945.75;;;13.54;60.18
46583;BME280;32309;48.858;8.252;2023-04-10T23:19:33;99941.59;;;13.51;60.53
46583;BME280;32309;48.858;8.252;2023-04-10T23:21:33;99933.53;;;13.43;60.91
46583;BME280;32309;48.858;8.252;2023-04-10T23:23:34;99918.16;;;13.40;60.82
46583;BME280;32309;48.858;8.252;2023-04-10T23:25:35;99926.16;;;13.37;60.64
46583;BME280;32309;48.858;8.252;2023-04-10T23:27:35;99917.63;;;13.35;60.25
46583;BME280;32309;48.858;8.252;2023-04-10T23:29:36;99912.63;;;13.31;61.18
46583;BME280;32309;48.858;8.252;2023-04-10T23:31:36;99906.75;;;13.29;62.26
46583;BME280;32309;48.858;8.252;2023-04-10T23:33:36;99913.94;;;13.26;61.88
46583;BME280;32309;48.858;8.252;2023-04-10T23:35:37;99913.25;;;13.24;60.78
46583;BME280;32309;48.858;8.252;2023-04-10T23:37:37;99914.88;;;13.25;61.09
46583;BME280;32309;48.858;8.252;2023-04-10T23:39:38;99908.72;;;13.26;60.30
46583;BME280;32309;48.858;8.252;2023-04-10T23:41:38;99902.72;;;13.25;59.15
46583;BME280;32309;48.858;8.252;2023-04-10T23:43:38;99899.16;;;13.26;59.71
46583;BME280;32309;48.858;8.252;2023-04-10T23:45:39;99895.59;;;13.27;60.22
46583;BME280;32309;48.858;8.252;2023-04-10T23:47:39;99902.59;;;13.27;60.19
46583;BME280;32309;48.858;8.252;2023-04-10T23:49:40;99898.19;;;13.27;59.96
46583;BME280;32309;48.858;8.252;2023-04-10T23:51:40;99890.50;;;13.26;60.27
46583;BME280;32309;48.858;8.252;2023-04-10T23:53:40;99894.91;;;13.25;59.79
46583;BME280;32309;48.858;8.252;2023-04-10T23:55:41;99895.03;;;13.24;61.31
46583;BME280;32309;48.858;8.252;2023-04-10T23:57:41;99890.38;;;13.16;62.47
46583;BME280;32309;48.858;8.252;2023-04-10T23:59:42;99899.44;;;13.10;63.76
